sensor_id;sensor_type;location;lat;lon;timestamp;temperature;humidity
50816;DHT22;39717;47.324;8.788;2022-11-24T08:08:04;7.20;99.90
50816;DHT22;39717;47.324;8.788;2022-11-24T08:10:30;7.30;99.90
50816;DHT22;39717;47.324;8.788;2022-11-24T08:12:59;7.50;99.90
50816;DHT22;39717;47.324;8.788;2022-11-24T08:15:25;7.70;99.90
50816;DHT22;39717;47.324;8.788;2022-11-24T08:17:51;7.90;99.90
50816;DHT22;39717;47.324;8.788;2022-11-24T08:20:20;8.00;99.90
50816;DHT22;39717;47.324;8.788;2022-11-24T08:22:45;8.20;87.20
50816;DHT22;39717;47.324;8.788;2022-11-24T08:25:11;8.30;79.90
50816;DHT22;39717;47.324;8.788;2022-11-24T08:27:40;8.30;80.20
50816;DHT22;39717;47.324;8.788;2022-11-24T08:30:07;8.30;75.50
50816;DHT22;39717;47.324;8.788;2022-11-24T08:32:34;8.30;79.60
50816;DHT22;39717;47.324;8.788;2022-11-24T08:35:00;8.20;79.00
50816;DHT22;39717;47.324;8.788;2022-11-24T08:37:25;8.10;78.80
50816;DHT22;39717;47.324;8.788;2022-11-24T08:39:52;8.00;85.90
50816;DHT22;39717;47.324;8.788;2022-11-24T08:42:18;7.80;90.80
50816;DHT22;39717;47.324;8.788;2022-11-24T08:44:44;7.70;95.80
50816;DHT22;39717;47.324;8.788;2022-11-24T08:47:09;7.60;91.70
50816;DHT22;39717;47.324;8.788;2022-11-24T08:49:35;7.50;95.00
50816;DHT22;39717;47.324;8.788;2022-11-24T08:54:27;7.30;98.50
50816;DHT22;39717;47.324;8.788;2022-11-24T08:56:53;7.10;99.90
50816;DHT22;39717;47.324;8.788;2022-11-24T08:59:19;7.00;99.90
50816;DHT22;39717;47.324;8.788;2022-11-24T09:01:45;6.80;99.90
50816;DHT22;39717;47.324;8.788;2022-11-24T09:04:11;6.80;99.90
50816;DHT22;39717;47.324;8.788;2022-11-24T09:06:36;6.70;99.90
50816;DHT22;39717;47.324;8.788;2022-11-24T09:09:02;6.70;99.90
50816;DHT22;39717;47.324;8.788;2022-11-24T09:11:28;6.60;99.90
50816;DHT22;39717;47.324;8.788;2022-11-24T09:13:55;6.60;99.90
50816;DHT22;39717;47.324;8.788;2022-11-24T09:16:24;6.60;99.90
50816;DHT22;39717;47.324;8.788;2022-11-24T09:18:59;6.60;99.90
50816;DHT22;39717;47.324;8.788;2022-11-24T09:21:25;6.60;99.90
50816;DHT22;39717;47.324;8.788;2022-11-24T09:23:52;6.60;99.90
50816;DHT22;39717;47.324;8.788;2022-11-24T09:26:24;6.80;99.90
50816;DHT22;39717;47.324;8.788;2022-11-24T09:28:51;6.80;99.90
50816;DHT22;39717;47.324;8.788;2022-11-24T09:31:23;6.70;99.90
50816;DHT22;39717;47.324;8.788;2022-11-24T09:33:50;6.70;99.90
50816;DHT22;39717;47.324;8.788;2022-11-24T09:36:17;6.70;99.90
50816;DHT22;39717;47.324;8.788;2022-11-24T09:38:43;6.60;99.90
50816;DHT22;39717;47.324;8.788;2022-11-24T09:41:26;6.60;99.90
50816;DHT22;39717;47.324;8.788;2022-11-24T09:50:17;6.60;99.90
50816;DHT22;39717;47.324;8.788;2022-11-24T10:01:27;6.80;99.90
50816;DHT22;39717;47.324;8.788;2022-11-24T10:03:54;6.80;99.90
50816;DHT22;39717;47.324;8.788;2022-11-24T10:06:37;6.80;99.90
50816;DHT22;39717;47.324;8.788;2022-11-24T10:09:22;6.90;99.90
50816;DHT22;39717;47.324;8.788;2022-11-24T10:28:15;7.20;99.90
50816;DHT22;39717;47.324;8.788;2022-11-24T10:30:42;7.30;99.90
50816;DHT22;39717;47.324;8.788;2022-11-24T10:33:21;7.30;99.90
50816;DHT22;39717;47.324;8.788;2022-11-24T10:36:02;7.30;99.90
50816;DHT22;39717;47.324;8.788;2022-11-24T10:38:34;7.40;99.90
50816;DHT22;39717;47.324;8.788;2022-11-24T10:41:11;7.40;99.90
50816;DHT22;39717;47.324;8.788;2022-11-24T10:43:41;7.50;99.90
50816;DHT22;39717;47.324;8.788;2022-11-24T10:46:22;7.50;99.90
50816;DHT22;39717;47.324;8.788;2022-11-24T10:48:52;7.60;99.90
50816;DHT22;39717;47.324;8.788;2022-11-24T10:54:21;7.80;99.90
50816;DHT22;39717;47.324;8.788;2022-11-24T10:56:49;7.90;99.90
50816;DHT22;39717;47.324;8.788;2022-11-24T11:01:53;8.00;97.30
50816;DHT22;39717;47.324;8.788;2022-11-24T11:04:31;8.10;91.30
50816;DHT22;39717;47.324;8.788;2022-11-24T11:07:19;8.10;93.10
50816;DHT22;39717;47.324;8.788;2022-11-24T11:09:47;8.20;91.70
50816;DHT22;39717;47.324;8.788;2022-11-24T11:14:49;8.50;87.60
50816;DHT22;39717;47.324;8.788;2022-11-24T11:17:32;8.60;82.20
50816;DHT22;39717;47.324;8.788;2022-11-24T11:20:20;8.60;80.60
50816;DHT22;39717;47.324;8.788;2022-11-24T11:22:48;8.80;76.60
50816;DHT22;39717;47.324;8.788;2022-11-24T11:25:34;8.70;77.10
50816;DHT22;39717;47.324;8.788;2022-11-24T11:31:00;8.70;79.90
50816;DHT22;39717;47.324;8.788;2022-11-24T11:33:31;8.80;78.00
50816;DHT22;39717;47.324;8.788;2022-11-24T11:36:00;8.80;76.50
50816;DHT22;39717;47.324;8.788;2022-11-24T11:38:34;8.80;76.00
50816;DHT22;39717;47.324;8.788;2022-11-24T11:41:02;8.80;73.90
50816;DHT22;39717;47.324;8.788;2022-11-24T11:43:31;8.80;74.60
50816;DHT22;39717;47.324;8.788;2022-11-24T11:46:11;8.80;72.90
50816;DHT22;39717;47.324;8.788;2022-11-24T11:48:40;8.90;74.70
50816;DHT22;39717;47.324;8.788;2022-11-24T11:56:38;8.90;73.00
50816;DHT22;39717;47.324;8.788;2022-11-24T12:15:00;9.00;69.30
50816;DHT22;39717;47.324;8.788;2022-11-24T12:28:46;9.20;68.90
50816;DHT22;39717;47.324;8.788;2022-11-24T12:39:44;9.20;68.00
